KOW992 KIAD-KTEB
Flight info
| Callsign | KOW992 |
|---|---|
| Flight time | 0h 43m |
| Altitude | 31000 |
| Route | WOOLY2 SWANN JAIKE4 |
| Aircraft | C750/M-SBDE3FGHRWXY/S |
Departure
| Time | 2026-05-05 18:34 |
|---|---|
| Airport | Washington Dulles International Airport (KIAD) |
Arrival
| Time | 2026-05-05 19:18 |
|---|---|
| Airport | Teterboro Airport (KTEB) |
| Time | Latitude | Longitude | Altitude | Speed | Heading |
|---|---|---|---|---|---|
| 2026-05-05 18:16 | 38.95403 | -77.44133 | 297 ft | 0 kts | 179° |
| 2026-05-05 18:30 | 38.95402 | -77.44133 | 297 ft | 1 kts | 179° |
| 2026-05-05 18:31 | 38.95393 | -77.44125 | 297 ft | 3 kts | 144° |
| 2026-05-05 18:31 | 38.95365 | -77.44099 | 297 ft | 7 kts | 140° |
| 2026-05-05 18:31 | 38.95351 | -77.44036 | 297 ft | 8 kts | 92° |
| 2026-05-05 18:31 | 38.95349 | -77.43960 | 297 ft | 10 kts | 91° |
| 2026-05-05 18:32 | 38.95359 | -77.43875 | 297 ft | 9 kts | 57° |
| 2026-05-05 18:32 | 38.95395 | -77.43808 | 299 ft | 8 kts | 70° |
| 2026-05-05 18:32 | 38.95394 | -77.43752 | 297 ft | 5 kts | 89° |
| 2026-05-05 18:32 | 38.95394 | -77.43722 | 298 ft | 1 kts | 89° |
| 2026-05-05 18:33 | 38.95394 | -77.43700 | 298 ft | 4 kts | 89° |
| 2026-05-05 18:33 | 38.95394 | -77.43650 | 297 ft | 7 kts | 89° |
| 2026-05-05 18:33 | 38.95356 | -77.43605 | 300 ft | 9 kts | 169° |
| 2026-05-05 18:33 | 38.95334 | -77.43604 | 296 ft | 0 kts | 178° |
| 2026-05-05 18:34 | 38.95330 | -77.43604 | 298 ft | 3 kts | 179° |
| 2026-05-05 18:34 | 38.95042 | -77.43607 | 300 ft | 97 kts | 180° |
| 2026-05-05 18:34 | 38.94164 | -77.43619 | 621 ft | 135 kts | 182° |
| 2026-05-05 18:34 | 38.93218 | -77.43637 | 1416 ft | 140 kts | 183° |
| 2026-05-05 18:35 | 38.92242 | -77.43499 | 2217 ft | 142 kts | 177° |
| 2026-05-05 18:35 | 38.91303 | -77.43311 | 2949 ft | 143 kts | 177° |
| 2026-05-05 18:35 | 38.90194 | -77.43124 | 3119 ft | 180 kts | 178° |
| 2026-05-05 18:35 | 38.88820 | -77.42924 | 3040 ft | 217 kts | 177° |
| 2026-05-05 18:36 | 38.87214 | -77.42710 | 3025 ft | 239 kts | 178° |
| 2026-05-05 18:36 | 38.85539 | -77.42484 | 3040 ft | 252 kts | 177° |
| 2026-05-05 18:36 | 38.83811 | -77.42251 | 4204 ft | 242 kts | 177° |
| 2026-05-05 18:36 | 38.82159 | -77.41742 | 5298 ft | 257 kts | 158° |
| 2026-05-05 18:37 | 38.80902 | -77.40003 | 6206 ft | 280 kts | 121° |
| 2026-05-05 18:37 | 38.80613 | -77.37462 | 7106 ft | 302 kts | 87° |
| 2026-05-05 18:37 | 38.81279 | -77.34855 | 8053 ft | 313 kts | 66° |
| 2026-05-05 18:37 | 38.81974 | -77.33223 | 8759 ft | 317 kts | 60° |
| 2026-05-05 18:38 | 38.83135 | -77.30761 | 9678 ft | 327 kts | 58° |
| 2026-05-05 18:38 | 38.84589 | -77.27271 | 10469 ft | 349 kts | 66° |
| 2026-05-05 18:38 | 38.85227 | -77.25280 | 10615 ft | 366 kts | 69° |
| 2026-05-05 18:38 | 38.86169 | -77.22111 | 10752 ft | 393 kts | 70° |
| 2026-05-05 18:39 | 38.87139 | -77.18783 | 11441 ft | 397 kts | 70° |
| 2026-05-05 18:39 | 38.88090 | -77.15497 | 12279 ft | 399 kts | 70° |
| 2026-05-05 18:39 | 38.89046 | -77.12134 | 13022 ft | 402 kts | 70° |
| 2026-05-05 18:39 | 38.90004 | -77.08735 | 13762 ft | 405 kts | 70° |
| 2026-05-05 18:40 | 38.90959 | -77.05309 | 14450 ft | 408 kts | 70° |
| 2026-05-05 18:40 | 38.91914 | -77.01867 | 15120 ft | 410 kts | 70° |
| 2026-05-05 18:40 | 38.92871 | -76.98399 | 15819 ft | 413 kts | 70° |
| 2026-05-05 18:40 | 38.93827 | -76.94912 | 16519 ft | 415 kts | 70° |
| 2026-05-05 18:41 | 38.94779 | -76.91412 | 17255 ft | 417 kts | 70° |
| 2026-05-05 18:41 | 38.95739 | -76.87870 | 17976 ft | 420 kts | 70° |
| 2026-05-05 18:41 | 38.96697 | -76.84306 | 18684 ft | 423 kts | 70° |
| 2026-05-05 18:41 | 38.97643 | -76.80771 | 19337 ft | 426 kts | 69° |
| 2026-05-05 18:42 | 38.98627 | -76.77162 | 20009 ft | 429 kts | 69° |
| 2026-05-05 18:42 | 38.99619 | -76.73537 | 20689 ft | 432 kts | 69° |
| 2026-05-05 18:42 | 39.00619 | -76.69874 | 21368 ft | 435 kts | 69° |
| 2026-05-05 18:42 | 39.01627 | -76.66176 | 22029 ft | 439 kts | 69° |
| 2026-05-05 18:43 | 39.02638 | -76.62451 | 22696 ft | 442 kts | 69° |
| 2026-05-05 18:43 | 39.03659 | -76.58685 | 23312 ft | 448 kts | 69° |
| 2026-05-05 18:43 | 39.04695 | -76.54871 | 23819 ft | 452 kts | 69° |
| 2026-05-05 18:43 | 39.05735 | -76.51044 | 24379 ft | 455 kts | 69° |
| 2026-05-05 18:44 | 39.06761 | -76.47230 | 24942 ft | 457 kts | 69° |
| 2026-05-05 18:44 | 39.07793 | -76.43345 | 25491 ft | 460 kts | 69° |
| 2026-05-05 18:44 | 39.08823 | -76.39427 | 26018 ft | 463 kts | 69° |
| 2026-05-05 18:44 | 39.09851 | -76.35484 | 26570 ft | 466 kts | 69° |
| 2026-05-05 18:45 | 39.10895 | -76.31528 | 27072 ft | 468 kts | 67° |
| 2026-05-05 18:45 | 39.12107 | -76.27634 | 27571 ft | 469 kts | 64° |
| 2026-05-05 18:45 | 39.13459 | -76.23792 | 28018 ft | 470 kts | 59° |
| 2026-05-05 18:45 | 39.15398 | -76.20420 | 28505 ft | 465 kts | 43° |
| 2026-05-05 18:46 | 39.17688 | -76.17549 | 29081 ft | 464 kts | 38° |
| 2026-05-05 18:46 | 39.20129 | -76.14820 | 29602 ft | 465 kts | 35° |
| 2026-05-05 18:46 | 39.22709 | -76.12270 | 30008 ft | 468 kts | 32° |
| 2026-05-05 18:46 | 39.25368 | -76.09818 | 30453 ft | 469 kts | 30° |
| 2026-05-05 18:47 | 39.28075 | -76.07453 | 30927 ft | 469 kts | 28° |
| 2026-05-05 18:47 | 39.30867 | -76.05200 | 31018 ft | 478 kts | 27° |
| 2026-05-05 18:47 | 39.36310 | -76.00426 | 30159 ft | 456 kts | 33° |
| 2026-05-05 18:48 | 39.38783 | -75.97898 | 28139 ft | 463 kts | 34° |
| 2026-05-05 18:48 | 39.41328 | -75.95404 | 26795 ft | 453 kts | 31° |
| 2026-05-05 18:48 | 39.43900 | -75.93082 | 25412 ft | 447 kts | 30° |
| 2026-05-05 18:48 | 39.46434 | -75.90778 | 24102 ft | 443 kts | 32° |
| 2026-05-05 18:49 | 39.48898 | -75.88406 | 22721 ft | 438 kts | 33° |
| 2026-05-05 18:49 | 39.51323 | -75.86054 | 21402 ft | 430 kts | 33° |
| 2026-05-05 18:49 | 39.53723 | -75.83801 | 20151 ft | 422 kts | 32° |
| 2026-05-05 18:49 | 39.56094 | -75.81597 | 18934 ft | 416 kts | 32° |
| 2026-05-05 18:50 | 39.58418 | -75.79394 | 17698 ft | 410 kts | 33° |
| 2026-05-05 18:50 | 39.60667 | -75.77278 | 17151 ft | 394 kts | 31° |
| 2026-05-05 18:50 | 39.62955 | -75.75212 | 16726 ft | 401 kts | 31° |
| 2026-05-05 18:50 | 39.65265 | -75.73127 | 16198 ft | 404 kts | 31° |
| 2026-05-05 18:51 | 39.67558 | -75.71003 | 15657 ft | 404 kts | 32° |
| 2026-05-05 18:51 | 39.69817 | -75.68904 | 15135 ft | 403 kts | 31° |
| 2026-05-05 18:51 | 39.72132 | -75.66781 | 14599 ft | 401 kts | 31° |
| 2026-05-05 18:51 | 39.74389 | -75.64718 | 14075 ft | 401 kts | 31° |
| 2026-05-05 18:52 | 39.76669 | -75.62619 | 13528 ft | 399 kts | 31° |
| 2026-05-05 18:52 | 39.78946 | -75.60518 | 13059 ft | 406 kts | 31° |
| 2026-05-05 18:52 | 39.81322 | -75.58340 | 13069 ft | 428 kts | 31° |
| 2026-05-05 18:52 | 39.83733 | -75.56117 | 13062 ft | 434 kts | 32° |
| 2026-05-05 18:53 | 39.86198 | -75.53825 | 13062 ft | 437 kts | 32° |
| 2026-05-05 18:53 | 39.88680 | -75.51524 | 13060 ft | 438 kts | 32° |
| 2026-05-05 18:53 | 39.91174 | -75.49223 | 13065 ft | 440 kts | 32° |
| 2026-05-05 18:53 | 39.93678 | -75.46905 | 13056 ft | 439 kts | 32° |
| 2026-05-05 18:54 | 39.96174 | -75.44585 | 13053 ft | 440 kts | 32° |
| 2026-05-05 18:54 | 39.98643 | -75.42295 | 13064 ft | 439 kts | 32° |
| 2026-05-05 18:54 | 40.01136 | -75.39977 | 13055 ft | 439 kts | 31° |
| 2026-05-05 18:54 | 40.03626 | -75.37661 | 13051 ft | 439 kts | 32° |
| 2026-05-05 18:55 | 40.06114 | -75.35346 | 13051 ft | 439 kts | 32° |
| 2026-05-05 18:55 | 40.08603 | -75.33029 | 13029 ft | 439 kts | 32° |
| 2026-05-05 18:55 | 40.11092 | -75.30708 | 13029 ft | 438 kts | 32° |
| 2026-05-05 18:55 | 40.13576 | -75.28388 | 13030 ft | 439 kts | 32° |
| 2026-05-05 18:56 | 40.16038 | -75.26089 | 13017 ft | 436 kts | 32° |
| 2026-05-05 18:56 | 40.18403 | -75.23879 | 12570 ft | 402 kts | 31° |
| 2026-05-05 18:56 | 40.20606 | -75.21828 | 12048 ft | 376 kts | 31° |
| 2026-05-05 18:56 | 40.22680 | -75.19897 | 11556 ft | 356 kts | 31° |
| 2026-05-05 18:57 | 40.24653 | -75.18054 | 11105 ft | 340 kts | 31° |
| 2026-05-05 18:57 | 40.26556 | -75.16276 | 10663 ft | 334 kts | 30° |
| 2026-05-05 18:57 | 40.28422 | -75.14534 | 10231 ft | 332 kts | 30° |
| 2026-05-05 18:57 | 40.30322 | -75.12754 | 9786 ft | 331 kts | 31° |
| 2026-05-05 18:58 | 40.32150 | -75.10996 | 9324 ft | 329 kts | 34° |
| 2026-05-05 18:58 | 40.33766 | -75.08856 | 8886 ft | 328 kts | 45° |
| 2026-05-05 18:58 | 40.35301 | -75.06634 | 8448 ft | 327 kts | 45° |
| 2026-05-05 18:58 | 40.36841 | -75.04449 | 8020 ft | 325 kts | 45° |
| 2026-05-05 18:59 | 40.38380 | -75.02312 | 7599 ft | 320 kts | 45° |
| 2026-05-05 18:59 | 40.39894 | -75.00196 | 7168 ft | 315 kts | 46° |
| 2026-05-05 18:59 | 40.41370 | -74.98107 | 7013 ft | 307 kts | 46° |
| 2026-05-05 18:59 | 40.42846 | -74.96021 | 7014 ft | 311 kts | 46° |
| 2026-05-05 19:00 | 40.44318 | -74.93952 | 7019 ft | 314 kts | 46° |
| 2026-05-05 19:00 | 40.45817 | -74.91844 | 7026 ft | 314 kts | 46° |
| 2026-05-05 19:00 | 40.47311 | -74.89733 | 7019 ft | 315 kts | 46° |
| 2026-05-05 19:00 | 40.48813 | -74.87610 | 6999 ft | 318 kts | 46° |
| 2026-05-05 19:01 | 40.50316 | -74.85487 | 7000 ft | 315 kts | 46° |
| 2026-05-05 19:01 | 40.51814 | -74.83372 | 6996 ft | 318 kts | 46° |
| 2026-05-05 19:01 | 40.53298 | -74.81274 | 6991 ft | 316 kts | 46° |
| 2026-05-05 19:01 | 40.54793 | -74.79158 | 6991 ft | 315 kts | 46° |
| 2026-05-05 19:02 | 40.56281 | -74.77050 | 6998 ft | 310 kts | 46° |
| 2026-05-05 19:02 | 40.57750 | -74.74971 | 6992 ft | 311 kts | 46° |
| 2026-05-05 19:02 | 40.59427 | -74.73189 | 6911 ft | 310 kts | 31° |
| 2026-05-05 19:02 | 40.61276 | -74.71721 | 6748 ft | 310 kts | 28° |
| 2026-05-05 19:03 | 40.63132 | -74.70277 | 6508 ft | 308 kts | 30° |
| 2026-05-05 19:03 | 40.64945 | -74.68788 | 6248 ft | 302 kts | 31° |
| 2026-05-05 19:03 | 40.66655 | -74.67362 | 5974 ft | 287 kts | 31° |
| 2026-05-05 19:03 | 40.68315 | -74.66005 | 5717 ft | 275 kts | 31° |
| 2026-05-05 19:04 | 40.69921 | -74.64705 | 5476 ft | 268 kts | 30° |
| 2026-05-05 19:04 | 40.71501 | -74.63414 | 5237 ft | 267 kts | 30° |
| 2026-05-05 19:04 | 40.73074 | -74.62123 | 5016 ft | 266 kts | 31° |
| 2026-05-05 19:04 | 40.74657 | -74.60829 | 4801 ft | 268 kts | 31° |
| 2026-05-05 19:05 | 40.76244 | -74.59529 | 4546 ft | 266 kts | 31° |
| 2026-05-05 19:05 | 40.77815 | -74.58239 | 4313 ft | 266 kts | 31° |
| 2026-05-05 19:05 | 40.79384 | -74.56952 | 4097 ft | 265 kts | 30° |
| 2026-05-05 19:05 | 40.80932 | -74.55682 | 3863 ft | 266 kts | 30° |
| 2026-05-05 19:06 | 40.82494 | -74.54400 | 3629 ft | 263 kts | 31° |
| 2026-05-05 19:06 | 40.84050 | -74.53122 | 3405 ft | 264 kts | 31° |
| 2026-05-05 19:06 | 40.85605 | -74.51844 | 3171 ft | 262 kts | 31° |
| 2026-05-05 19:06 | 40.87166 | -74.50558 | 2981 ft | 263 kts | 32° |
| 2026-05-05 19:07 | 40.88707 | -74.49301 | 2998 ft | 259 kts | 30° |
| 2026-05-05 19:07 | 40.90319 | -74.48193 | 3004 ft | 264 kts | 24° |
| 2026-05-05 19:07 | 40.91970 | -74.47162 | 2997 ft | 261 kts | 23° |
| 2026-05-05 19:07 | 40.93602 | -74.46116 | 3007 ft | 261 kts | 23° |
| 2026-05-05 19:08 | 40.95237 | -74.45039 | 2987 ft | 264 kts | 24° |
| 2026-05-05 19:08 | 40.96895 | -74.43969 | 2979 ft | 264 kts | 23° |
| 2026-05-05 19:08 | 40.98528 | -74.42903 | 2981 ft | 260 kts | 24° |
| 2026-05-05 19:08 | 41.00135 | -74.41854 | 2984 ft | 261 kts | 24° |
| 2026-05-05 19:09 | 41.01772 | -74.40811 | 3011 ft | 259 kts | 23° |
| 2026-05-05 19:09 | 41.03375 | -74.39654 | 2922 ft | 266 kts | 37° |
| 2026-05-05 19:09 | 41.04332 | -74.37727 | 2834 ft | 241 kts | 79° |
| 2026-05-05 19:09 | 41.04168 | -74.35732 | 2793 ft | 203 kts | 127° |
| 2026-05-05 19:10 | 41.03165 | -74.34703 | 2804 ft | 173 kts | 169° |
| 2026-05-05 19:10 | 41.02027 | -74.34336 | 2962 ft | 170 kts | 173° |
| 2026-05-05 19:10 | 41.00869 | -74.33944 | 3060 ft | 176 kts | 168° |
| 2026-05-05 19:10 | 40.99931 | -74.32678 | 2618 ft | 210 kts | 124° |
| 2026-05-05 19:11 | 40.99456 | -74.30810 | 2034 ft | 223 kts | 116° |
| 2026-05-05 19:11 | 40.98984 | -74.28905 | 1984 ft | 205 kts | 116° |
| 2026-05-05 19:11 | 40.98568 | -74.27118 | 1918 ft | 206 kts | 115° |
| 2026-05-05 19:11 | 40.98132 | -74.25373 | 1788 ft | 198 kts | 119° |
| 2026-05-05 19:12 | 40.97713 | -74.23649 | 1670 ft | 197 kts | 114° |
| 2026-05-05 19:12 | 40.97340 | -74.21991 | 1726 ft | 179 kts | 117° |
| 2026-05-05 19:12 | 40.96900 | -74.20440 | 1484 ft | 183 kts | 122° |
| 2026-05-05 19:12 | 40.96477 | -74.18810 | 1035 ft | 191 kts | 114° |
| 2026-05-05 19:13 | 40.96137 | -74.17243 | 1230 ft | 173 kts | 116° |
| 2026-05-05 19:13 | 40.95797 | -74.15638 | 1249 ft | 184 kts | 114° |
| 2026-05-05 19:13 | 40.95493 | -74.14057 | 1229 ft | 174 kts | 110° |
| 2026-05-05 19:13 | 40.95237 | -74.12577 | 1203 ft | 155 kts | 109° |
| 2026-05-05 19:14 | 40.95055 | -74.11248 | 1163 ft | 142 kts | 105° |
| 2026-05-05 19:14 | 40.94885 | -74.10021 | 1065 ft | 132 kts | 108° |
| 2026-05-05 19:14 | 40.94664 | -74.08859 | 931 ft | 128 kts | 117° |
| 2026-05-05 19:14 | 40.94312 | -74.07804 | 837 ft | 122 kts | 122° |
| 2026-05-05 19:15 | 40.93992 | -74.06800 | 844 ft | 113 kts | 123° |
| 2026-05-05 19:15 | 40.93517 | -74.06041 | 892 ft | 107 kts | 155° |
| 2026-05-05 19:15 | 40.92840 | -74.05663 | 998 ft | 103 kts | 171° |
| 2026-05-05 19:15 | 40.92144 | -74.05504 | 1047 ft | 97 kts | 183° |
| 2026-05-05 19:16 | 40.91474 | -74.05481 | 1046 ft | 99 kts | 185° |
| 2026-05-05 19:16 | 40.90776 | -74.05529 | 1017 ft | 102 kts | 185° |
| 2026-05-05 19:16 | 40.90054 | -74.05563 | 981 ft | 108 kts | 183° |
| 2026-05-05 19:16 | 40.89284 | -74.05607 | 780 ft | 109 kts | 183° |
| 2026-05-05 19:17 | 40.88500 | -74.05705 | 628 ft | 115 kts | 183° |
| 2026-05-05 19:17 | 40.87707 | -74.05754 | 505 ft | 114 kts | 184° |
| 2026-05-05 19:17 | 40.86923 | -74.05806 | 352 ft | 113 kts | 186° |
| 2026-05-05 19:17 | 40.86121 | -74.05868 | 175 ft | 117 kts | 188° |
| 2026-05-05 19:18 | 40.85307 | -74.05926 | 20 ft | 111 kts | 187° |
| 2026-05-05 19:18 | 40.84664 | -74.05975 | 11 ft | 73 kts | 185° |
| 2026-05-05 19:18 | 40.84363 | -74.06007 | 14 ft | 23 kts | 200° |
| 2026-05-05 19:18 | 40.84271 | -74.06106 | 11 ft | 12 kts | 229° |
| 2026-05-05 19:19 | 40.84243 | -74.06162 | 11 ft | 2 kts | 261° |
| 2026-05-05 19:19 | 40.84241 | -74.06220 | 11 ft | 9 kts | 270° |
| 2026-05-05 19:19 | 40.84245 | -74.06299 | 11 ft | 8 kts | 278° |
| 2026-05-05 19:19 | 40.84247 | -74.06367 | 9 ft | 7 kts | 274° |
| 2026-05-05 19:20 | 40.84249 | -74.06433 | 9 ft | 7 kts | 272° |
| 2026-05-05 19:20 | 40.84222 | -74.06475 | 9 ft | 6 kts | 210° |
| 2026-05-05 19:20 | 40.84194 | -74.06505 | 9 ft | 4 kts | 256° |
| 2026-05-05 19:20 | 40.84201 | -74.06533 | 9 ft | 3 kts | 294° |
| 2026-05-05 19:21 | 40.84205 | -74.06540 | 9 ft | 1 kts | 328° |
| 2026-05-05 19:21 | 40.84209 | -74.06536 | 9 ft | 0 kts | 35° |
| 2026-05-05 19:21 | 40.84209 | -74.06532 | 10 ft | 0 kts | 78° |
| 2026-05-05 19:21 | 40.84207 | -74.06530 | 10 ft | 0 kts | 113° |